createdAt,value
2019-05-21T00:01:26.655Z,22.20
2019-05-21T00:03:56.478Z,22.20
2019-05-21T00:06:26.429Z,22.20
2019-05-21T00:08:56.222Z,22.20
2019-05-21T00:11:26.028Z,22.20
2019-05-21T00:13:55.968Z,22.20
2019-05-21T00:16:25.762Z,22.20
2019-05-21T00:18:55.793Z,22.20
2019-05-21T00:21:25.615Z,22.20
2019-05-21T00:23:55.506Z,22.20
2019-05-21T00:26:25.384Z,22.20
2019-05-21T00:29:30.967Z,22.20
2019-05-21T00:32:36.242Z,22.20
2019-05-21T00:35:48.195Z,22.10
2019-05-21T00:38:54.037Z,22.00
2019-05-21T00:41:59.601Z,22.00
2019-05-21T00:44:31.207Z,21.90
2019-05-21T00:47:01.262Z,21.90
2019-05-21T00:49:31.283Z,21.90
2019-05-21T00:52:07.805Z,22.00
2019-05-21T00:54:32.550Z,22.00
2019-05-21T00:57:02.539Z,22.00
2019-05-21T00:59:32.318Z,22.10
2019-05-21T01:02:02.211Z,22.10
2019-05-21T01:04:32.095Z,22.10
2019-05-21T01:07:01.916Z,22.10
2019-05-21T01:09:31.776Z,22.10
2019-05-21T01:12:01.631Z,22.10
2019-05-21T01:14:31.418Z,22.10
2019-05-21T01:17:01.223Z,22.10
2019-05-21T01:19:31.164Z,22.20
2019-05-21T01:22:00.932Z,22.20
2019-05-21T01:24:30.825Z,22.20
2019-05-21T01:27:00.636Z,22.20
2019-05-21T01:29:30.594Z,22.20
2019-05-21T01:32:00.455Z,22.20
2019-05-21T01:34:30.385Z,22.10
2019-05-21T01:37:00.300Z,22.10
2019-05-21T01:39:30.107Z,22.20
2019-05-21T01:41:59.981Z,22.20
2019-05-21T01:44:30.011Z,22.20
2019-05-21T01:46:59.956Z,22.20
2019-05-21T01:49:29.959Z,22.20
2019-05-21T01:51:59.702Z,22.10
2019-05-21T01:54:29.567Z,22.20
2019-05-21T01:56:59.360Z,22.20
2019-05-21T01:59:29.284Z,22.20
2019-05-21T02:01:59.077Z,22.20
2019-05-21T02:04:28.900Z,22.10
2019-05-21T02:06:58.846Z,22.20
2019-05-21T02:09:28.648Z,22.10
2019-05-21T02:11:58.445Z,22.10
2019-05-21T02:14:28.307Z,22.10
2019-05-21T02:16:58.200Z,22.10
2019-05-21T02:19:28.024Z,22.10
2019-05-21T02:21:57.863Z,22.10
2019-05-21T02:24:27.673Z,22.10
2019-05-21T02:26:57.558Z,22.20
2019-05-21T02:29:27.383Z,22.10
2019-05-21T02:31:57.209Z,22.10
2019-05-21T02:34:27.045Z,22.10
2019-05-21T02:36:56.854Z,22.10
2019-05-21T02:39:26.724Z,22.10
2019-05-21T02:41:56.571Z,22.10
2019-05-21T02:44:26.418Z,22.10
2019-05-21T02:46:56.283Z,22.10
2019-05-21T02:49:26.158Z,22.10
2019-05-21T02:51:56.066Z,22.10
2019-05-21T02:54:40.148Z,22.10
2019-05-21T02:56:57.442Z,22.10
2019-05-21T02:59:27.355Z,22.10
2019-05-21T03:02:02.791Z,22.10
2019-05-21T03:04:32.596Z,22.10
2019-05-21T03:07:20.713Z,22.10
2019-05-21T03:09:51.110Z,22.10
2019-05-21T03:12:20.971Z,22.00
2019-05-21T03:14:50.807Z,22.00
2019-05-21T03:17:20.835Z,22.10
2019-05-21T03:19:50.753Z,22.00
2019-05-21T03:22:20.732Z,22.10
2019-05-21T03:24:50.728Z,22.10
2019-05-21T03:27:20.519Z,22.10
2019-05-21T03:29:50.335Z,22.10
2019-05-21T03:32:20.156Z,22.00
2019-05-21T03:34:50.026Z,22.00
2019-05-21T03:37:19.925Z,22.00
2019-05-21T03:39:49.788Z,22.10
2019-05-21T03:42:19.641Z,22.10
2019-05-21T03:44:59.944Z,22.10
2019-05-21T03:47:20.950Z,22.10
2019-05-21T03:49:50.832Z,22.00
2019-05-21T03:52:20.636Z,22.00
2019-05-21T03:54:50.430Z,22.00
2019-05-21T03:57:20.270Z,22.00
2019-05-21T03:59:50.134Z,22.00
2019-05-21T04:02:19.920Z,22.00
2019-05-21T04:04:49.777Z,22.00
2019-05-21T04:07:19.591Z,22.00
2019-05-21T04:09:49.431Z,22.00
2019-05-21T04:12:19.234Z,22.00
2019-05-21T04:14:52.757Z,22.00
2019-05-21T04:17:35.770Z,22.00
2019-05-21T04:20:06.060Z,22.00
2019-05-21T04:22:38.388Z,22.00
2019-05-21T04:25:08.370Z,22.00
2019-05-21T04:27:38.179Z,22.00
2019-05-21T04:30:11.219Z,22.00
2019-05-21T04:32:39.762Z,22.00
2019-05-21T04:35:09.674Z,22.00
2019-05-21T04:37:39.571Z,22.00
2019-05-21T04:40:09.543Z,22.00
2019-05-21T04:42:39.349Z,22.00
2019-05-21T04:45:09.444Z,22.00
2019-05-21T04:47:39.335Z,22.00
2019-05-21T04:50:09.300Z,22.00
2019-05-21T04:52:39.088Z,22.00
2019-05-21T04:55:09.877Z,22.00
2019-05-21T04:57:39.722Z,22.00
2019-05-21T05:00:09.641Z,22.00
2019-05-21T05:02:39.520Z,22.00
2019-05-21T05:05:09.675Z,22.00
2019-05-21T05:07:39.477Z,22.00
2019-05-21T05:10:09.532Z,22.00
2019-05-21T05:12:39.380Z,22.00
2019-05-21T05:15:09.375Z,22.00
2019-05-21T05:17:39.344Z,22.00
2019-05-21T05:20:09.351Z,22.00
2019-05-21T05:22:39.149Z,22.00
2019-05-21T05:25:09.185Z,22.00
2019-05-21T05:27:39.056Z,22.00
2019-05-21T05:30:09.343Z,22.00
2019-05-21T05:32:39.242Z,22.00
2019-05-21T05:35:09.338Z,22.00
2019-05-21T05:37:44.168Z,22.00
2019-05-21T05:40:11.992Z,22.00
2019-05-21T05:42:41.789Z,22.00
2019-05-21T05:45:11.979Z,22.00
2019-05-21T05:47:41.776Z,22.00
2019-05-21T05:50:13.891Z,21.90
2019-05-21T05:52:43.736Z,22.00
2019-05-21T05:55:14.259Z,22.00
2019-05-21T05:57:44.154Z,22.00
2019-05-21T06:00:14.755Z,22.00
2019-05-21T06:02:44.600Z,21.90
2019-05-21T06:05:16.627Z,21.90
2019-05-21T06:08:05.507Z,21.90
2019-05-21T06:10:39.239Z,21.90
2019-05-21T06:13:06.791Z,21.90
2019-05-21T06:15:36.596Z,21.90
2019-05-21T06:18:06.658Z,21.90
2019-05-21T06:20:36.491Z,21.90
2019-05-21T06:23:06.307Z,21.90
2019-05-21T06:25:36.188Z,21.90
2019-05-21T06:28:06.094Z,21.90
2019-05-21T06:30:35.892Z,21.90
2019-05-21T06:33:05.964Z,21.90
2019-05-21T06:35:35.739Z,21.90
2019-05-21T06:38:17.344Z,21.90
2019-05-21T06:40:38.583Z,21.90
2019-05-21T06:43:08.487Z,21.90
2019-05-21T06:45:38.523Z,21.90
2019-05-21T06:48:08.351Z,21.90
2019-05-21T06:50:38.248Z,21.90
2019-05-21T06:53:08.200Z,21.90
2019-05-21T06:55:37.967Z,21.90
2019-05-21T06:58:07.753Z,21.90
2019-05-21T07:00:37.611Z,21.90
2019-05-21T07:03:07.388Z,21.80
2019-05-21T07:05:37.279Z,21.80
2019-05-21T07:08:07.039Z,21.80
2019-05-21T07:10:36.865Z,21.80
2019-05-21T07:13:06.795Z,21.80
2019-05-21T07:15:36.687Z,21.80
2019-05-21T07:18:06.535Z,21.90
2019-05-21T07:20:36.336Z,21.90
2019-05-21T07:23:06.238Z,21.90
2019-05-21T07:25:36.173Z,21.90
2019-05-21T07:28:06.007Z,21.90
2019-05-21T07:30:36.003Z,21.90
2019-05-21T07:33:06.524Z,21.90
2019-05-21T07:35:36.701Z,21.80
2019-05-21T07:38:06.512Z,21.80
2019-05-21T07:40:36.315Z,21.80
2019-05-21T07:43:06.135Z,21.90
2019-05-21T07:45:35.976Z,21.90
2019-05-21T07:48:05.883Z,21.90
2019-05-21T07:50:35.725Z,21.90
2019-05-21T07:53:07.050Z,21.90
2019-05-21T07:55:36.875Z,21.80
2019-05-21T07:58:06.764Z,21.80
2019-05-21T08:00:36.640Z,21.80
2019-05-21T08:03:06.437Z,21.80
2019-05-21T08:05:36.291Z,21.80
2019-05-21T08:08:06.535Z,21.90
2019-05-21T08:10:36.442Z,21.90
2019-05-21T08:13:06.386Z,21.90
2019-05-21T08:15:36.215Z,21.90
2019-05-21T08:18:06.250Z,21.80
2019-05-21T08:20:36.027Z,21.90
2019-05-21T08:23:05.860Z,21.80
2019-05-21T08:25:35.745Z,21.80
2019-05-21T08:28:05.663Z,21.80
2019-05-21T08:30:35.439Z,21.80
2019-05-21T08:33:05.340Z,21.80
2019-05-21T08:35:35.167Z,21.80
2019-05-21T08:38:06.784Z,21.80
2019-05-21T08:40:36.442Z,21.80
2019-05-21T08:43:06.474Z,21.80
2019-05-21T08:45:36.515Z,21.80
2019-05-21T08:48:06.375Z,21.80
2019-05-21T08:50:36.445Z,21.80
2019-05-21T08:53:06.439Z,21.80
2019-05-21T08:55:36.291Z,21.80
2019-05-21T08:58:07.546Z,21.80
2019-05-21T09:00:37.759Z,21.80
2019-05-21T09:03:07.555Z,21.80
2019-05-21T09:05:37.350Z,21.80
2019-05-21T09:08:07.278Z,21.80
2019-05-21T09:10:42.140Z,21.80
2019-05-21T09:13:11.986Z,21.80
2019-05-21T09:15:41.811Z,21.80
2019-05-21T09:18:11.616Z,21.80
2019-05-21T09:20:41.484Z,21.80
2019-05-21T09:23:11.307Z,21.80
2019-05-21T09:25:41.136Z,21.80
2019-05-21T09:28:10.966Z,21.80
2019-05-21T09:30:41.212Z,21.80
2019-05-21T09:33:10.999Z,21.80
2019-05-21T09:35:40.891Z,21.80
2019-05-21T09:38:10.765Z,21.80
2019-05-21T09:40:40.718Z,21.80
2019-05-21T09:43:10.471Z,21.80
2019-05-21T09:45:40.353Z,21.90
2019-05-21T09:48:10.342Z,21.80
2019-05-21T09:50:40.191Z,21.80
2019-05-21T09:53:10.041Z,21.80
2019-05-21T09:55:39.801Z,21.90
2019-05-21T09:58:34.724Z,21.90
2019-05-21T10:01:22.620Z,21.90
2019-05-21T10:03:57.356Z,21.80
2019-05-21T10:06:27.403Z,21.80
2019-05-21T10:08:57.224Z,21.80
2019-05-21T10:11:27.023Z,21.80
2019-05-21T10:13:56.819Z,21.80
2019-05-21T10:16:26.739Z,21.80
2019-05-21T10:18:56.553Z,21.80
2019-05-21T10:21:26.396Z,21.80
2019-05-21T10:23:56.213Z,21.80
2019-05-21T10:26:26.151Z,21.90
2019-05-21T10:28:55.983Z,21.90
2019-05-21T10:31:25.949Z,21.90
2019-05-21T10:33:55.816Z,21.80
2019-05-21T10:36:25.621Z,21.90
2019-05-21T10:38:55.399Z,21.90
2019-05-21T10:41:25.464Z,21.90
2019-05-21T10:43:55.251Z,21.90
2019-05-21T10:46:25.047Z,21.90
2019-05-21T10:48:55.008Z,21.90
2019-05-21T10:51:24.819Z,21.90
2019-05-21T10:53:54.679Z,21.90
2019-05-21T10:56:24.447Z,21.90
2019-05-21T10:58:54.279Z,21.90
2019-05-21T11:01:43.064Z,21.90
2019-05-21T11:04:21.765Z,21.90
2019-05-21T11:06:51.726Z,21.90
2019-05-21T11:09:23.388Z,21.90
2019-05-21T11:11:53.177Z,21.90
2019-05-21T11:14:23.033Z,21.90
2019-05-21T11:16:52.992Z,21.90
2019-05-21T11:19:23.008Z,21.90
2019-05-21T11:21:52.830Z,21.90
2019-05-21T11:24:22.723Z,21.90
2019-05-21T11:26:52.594Z,21.90
2019-05-21T11:29:22.387Z,21.90
2019-05-21T11:31:57.263Z,21.90
2019-05-21T11:34:23.764Z,22.00
2019-05-21T11:36:53.779Z,22.00
2019-05-21T11:39:23.581Z,22.00
2019-05-21T11:41:53.433Z,22.00
2019-05-21T11:44:23.248Z,22.00
2019-05-21T11:46:53.028Z,22.00
2019-05-21T11:49:22.992Z,22.00
2019-05-21T11:51:52.921Z,22.00
2019-05-21T11:54:22.717Z,22.00
2019-05-21T11:56:52.716Z,22.00
2019-05-21T11:59:22.514Z,22.00
2019-05-21T12:01:52.362Z,22.00
2019-05-21T12:04:22.151Z,22.00
2019-05-21T12:06:51.959Z,22.00
2019-05-21T12:09:21.855Z,22.00
2019-05-21T12:11:51.632Z,22.00
2019-05-21T12:14:21.524Z,22.00
2019-05-21T12:16:52.236Z,22.00
2019-05-21T12:19:22.042Z,22.00
2019-05-21T12:21:51.853Z,22.00
2019-05-21T12:24:21.689Z,22.00
2019-05-21T12:26:51.573Z,22.00
2019-05-21T12:29:21.458Z,22.00
2019-05-21T12:31:51.281Z,22.00
2019-05-21T12:34:21.140Z,22.00
2019-05-21T12:36:51.007Z,22.00
2019-05-21T12:39:20.991Z,22.00
2019-05-21T12:41:50.750Z,22.10
2019-05-21T12:44:20.532Z,22.10
2019-05-21T12:46:50.374Z,22.10
2019-05-21T12:49:20.268Z,22.10
2019-05-21T12:51:50.233Z,22.10
2019-05-21T12:54:20.066Z,22.10
2019-05-21T12:56:49.866Z,22.10
2019-05-21T12:59:19.701Z,22.10
2019-05-21T13:01:49.502Z,22.10
2019-05-21T13:04:19.423Z,22.10
2019-05-21T13:06:49.440Z,22.10
2019-05-21T13:09:32.273Z,22.10
2019-05-21T13:11:50.785Z,22.10
2019-05-21T13:14:20.713Z,22.10
2019-05-21T13:16:50.946Z,22.10
2019-05-21T13:19:20.962Z,22.10
2019-05-21T13:21:50.851Z,22.20
2019-05-21T13:24:20.738Z,22.20
2019-05-21T13:26:50.820Z,22.20
2019-05-21T13:29:20.699Z,22.20
2019-05-21T13:31:50.693Z,22.20
2019-05-21T13:34:20.568Z,22.20
2019-05-21T13:36:50.527Z,22.20
2019-05-21T13:39:20.707Z,22.20
2019-05-21T13:41:50.524Z,22.20
2019-05-21T13:44:20.383Z,22.20
2019-05-21T13:46:50.160Z,22.30
2019-05-21T13:51:55.209Z,22.30
2019-05-21T13:54:24.986Z,22.40
2019-05-21T13:56:54.777Z,22.40
2019-05-21T13:59:24.586Z,22.40
2019-05-21T14:01:54.420Z,22.40
2019-05-21T14:04:24.375Z,22.40
2019-05-21T14:06:54.417Z,22.40
2019-05-21T14:09:24.280Z,22.40
2019-05-21T14:11:54.254Z,22.40
2019-05-21T14:14:24.209Z,22.50
2019-05-21T14:16:54.023Z,22.40
2019-05-21T14:19:23.850Z,22.50
2019-05-21T14:21:53.720Z,22.50
2019-05-21T14:24:23.499Z,22.50
2019-05-21T14:26:53.301Z,22.50
2019-05-21T14:29:23.181Z,22.60
2019-05-21T14:31:52.971Z,22.60
2019-05-21T14:34:22.732Z,22.60
2019-05-21T14:36:52.747Z,22.60
2019-05-21T14:39:22.627Z,22.70
2019-05-21T14:41:52.416Z,22.70
2019-05-21T14:44:22.306Z,22.70
2019-05-21T14:46:52.247Z,22.70
2019-05-21T14:49:22.034Z,22.70
2019-05-21T14:51:51.899Z,22.70
2019-05-21T14:54:26.577Z,22.70
2019-05-21T14:56:53.257Z,22.80
2019-05-21T14:59:23.072Z,22.80
2019-05-21T15:01:52.873Z,22.80
2019-05-21T15:04:22.986Z,22.80
2019-05-21T15:06:53.021Z,22.80
2019-05-21T15:09:22.879Z,22.80
2019-05-21T15:11:52.751Z,22.80
2019-05-21T15:14:22.545Z,22.80
2019-05-21T15:16:52.372Z,22.90
2019-05-21T15:19:22.505Z,22.90
2019-05-21T15:21:55.028Z,22.90
2019-05-21T15:24:24.880Z,22.90
2019-05-21T15:26:54.670Z,22.90
2019-05-21T15:29:24.751Z,22.90
2019-05-21T15:31:54.503Z,22.90
2019-05-21T15:34:24.327Z,22.90
2019-05-21T15:36:54.191Z,22.90
2019-05-21T15:39:23.998Z,23.00
2019-05-21T15:41:53.834Z,23.00
2019-05-21T15:44:23.690Z,23.00
2019-05-21T15:46:53.690Z,23.00
2019-05-21T15:49:35.602Z,23.00
2019-05-21T15:51:55.050Z,23.00
2019-05-21T15:54:24.893Z,23.00
2019-05-21T15:56:54.671Z,23.00
2019-05-21T15:59:24.528Z,23.00
2019-05-21T16:01:54.443Z,23.10
2019-05-21T16:04:24.243Z,23.10
2019-05-21T16:06:54.147Z,23.10
2019-05-21T16:09:23.935Z,23.10
2019-05-21T16:11:53.729Z,23.10
2019-05-21T16:14:23.664Z,23.10
2019-05-21T16:16:53.543Z,23.10
2019-05-21T16:19:23.319Z,23.20
2019-05-21T16:21:53.107Z,23.20
2019-05-21T16:24:22.934Z,23.20
2019-05-21T16:26:52.779Z,23.20
2019-05-21T16:29:22.587Z,23.20
2019-05-21T16:31:52.483Z,23.20
2019-05-21T16:34:22.398Z,23.20
2019-05-21T16:36:52.274Z,23.20
2019-05-21T16:39:23.392Z,23.20
2019-05-21T16:41:53.267Z,23.30
2019-05-21T16:44:23.015Z,23.30
2019-05-21T16:46:52.888Z,23.30
2019-05-21T16:49:22.900Z,23.30
2019-05-21T16:51:53.081Z,23.30
2019-05-21T16:54:22.867Z,23.30
2019-05-21T16:56:52.732Z,23.30
2019-05-21T16:59:22.602Z,23.30
2019-05-21T17:01:52.562Z,23.30
2019-05-21T17:04:22.470Z,23.30
2019-05-21T17:06:52.258Z,23.40
2019-05-21T17:09:22.081Z,23.40
2019-05-21T17:12:00.003Z,23.30
2019-05-21T17:14:24.726Z,23.40
2019-05-21T17:16:54.487Z,23.40
2019-05-21T17:19:24.500Z,23.40
2019-05-21T17:21:54.281Z,23.40
2019-05-21T17:24:24.218Z,23.40
2019-05-21T17:26:54.001Z,23.40
2019-05-21T17:29:23.986Z,23.40
2019-05-21T17:31:53.821Z,23.40
2019-05-21T17:34:23.898Z,23.40
2019-05-21T17:36:53.957Z,23.40
2019-05-21T17:39:23.735Z,23.40
2019-05-21T17:41:53.769Z,23.40
2019-05-21T17:44:24.951Z,23.50
2019-05-21T17:46:55.884Z,23.50
2019-05-21T17:49:25.764Z,23.50
2019-05-21T17:51:55.644Z,23.50
2019-05-21T17:54:25.620Z,23.50
2019-05-21T17:56:55.469Z,23.50
2019-05-21T17:59:25.337Z,23.50
2019-05-21T18:01:55.631Z,23.50
2019-05-21T18:04:26.125Z,23.50
2019-05-21T18:06:56.688Z,23.50
2019-05-21T18:09:27.724Z,23.50
2019-05-21T18:11:58.559Z,23.60
2019-05-21T18:14:29.728Z,23.60
2019-05-21T18:17:00.220Z,23.60
2019-05-21T18:19:30.203Z,23.60
2019-05-21T18:22:00.650Z,23.60
2019-05-21T18:24:30.671Z,23.60
2019-05-21T18:27:00.821Z,23.60
2019-05-21T18:29:30.614Z,23.60
2019-05-21T18:32:00.456Z,23.60
2019-05-21T18:34:30.230Z,23.60
2019-05-21T18:37:00.084Z,23.70
2019-05-21T18:39:30.620Z,23.70
2019-05-21T18:42:00.560Z,23.70
2019-05-21T18:44:30.425Z,23.70
2019-05-21T18:47:00.460Z,23.70
2019-05-21T18:49:30.443Z,23.70
2019-05-21T18:52:00.272Z,23.70
2019-05-21T18:54:30.274Z,23.70
2019-05-21T18:57:00.223Z,23.70
2019-05-21T18:59:30.102Z,23.70
2019-05-21T19:01:59.886Z,23.70
2019-05-21T19:04:29.790Z,23.70
2019-05-21T19:06:59.627Z,23.70
2019-05-21T19:09:29.683Z,23.70
2019-05-21T19:11:59.613Z,23.70
2019-05-21T19:14:29.435Z,23.80
2019-05-21T19:16:59.250Z,23.80
2019-05-21T19:19:29.216Z,23.80
2019-05-21T19:21:59.195Z,23.80
2019-05-21T19:24:29.065Z,23.80
2019-05-21T19:26:59.040Z,23.80
2019-05-21T19:29:28.865Z,23.80
2019-05-21T19:31:58.960Z,23.80
2019-05-21T19:34:28.991Z,23.80
2019-05-21T19:36:58.803Z,23.80
2019-05-21T19:39:29.377Z,23.80
2019-05-21T19:41:59.235Z,23.80
2019-05-21T19:44:29.130Z,23.80
2019-05-21T19:46:59.158Z,23.80
2019-05-21T19:49:29.014Z,23.80
2019-05-21T19:51:58.924Z,23.80
2019-05-21T19:54:28.949Z,23.80
2019-05-21T19:56:58.945Z,23.90
2019-05-21T19:59:29.032Z,23.90
2019-05-21T20:01:58.911Z,23.90
2019-05-21T20:04:29.437Z,23.90
2019-05-21T20:07:00.032Z,23.90
2019-05-21T20:09:32.249Z,23.90
2019-05-21T20:12:02.856Z,23.90
2019-05-21T20:14:33.164Z,23.90
2019-05-21T20:17:04.077Z,23.90
2019-05-21T20:19:34.718Z,23.90
2019-05-21T20:22:05.621Z,23.90
2019-05-21T20:24:36.051Z,23.90
2019-05-21T20:27:06.314Z,23.90
2019-05-21T20:29:36.197Z,23.90
2019-05-21T20:32:06.678Z,24.00
2019-05-21T20:34:36.727Z,24.00
2019-05-21T20:37:07.724Z,24.00
2019-05-21T20:39:39.161Z,24.00
2019-05-21T20:42:10.393Z,24.00
2019-05-21T20:44:40.315Z,24.00
2019-05-21T20:47:12.356Z,24.00
2019-05-21T20:49:44.215Z,24.00
2019-05-21T20:52:18.949Z,24.00
2019-05-21T20:54:50.644Z,24.00
2019-05-21T20:57:20.578Z,24.00
2019-05-21T20:59:50.844Z,24.00
2019-05-21T21:02:20.777Z,24.00
2019-05-21T21:04:51.075Z,24.00
2019-05-21T21:07:20.888Z,24.00
2019-05-21T21:09:51.292Z,24.00
2019-05-21T21:12:21.534Z,24.00
2019-05-21T21:14:52.419Z,24.00
2019-05-21T21:17:22.331Z,24.00
2019-05-21T21:19:52.272Z,24.00
2019-05-21T21:22:22.092Z,24.00
2019-05-21T21:24:51.988Z,24.00
2019-05-21T21:27:23.337Z,24.00
2019-05-21T21:29:53.083Z,24.00
2019-05-21T21:32:23.291Z,24.00
2019-05-21T21:34:53.116Z,24.00
2019-05-21T21:37:23.234Z,24.10
2019-05-21T21:39:53.555Z,24.10
2019-05-21T21:42:23.520Z,24.10
2019-05-21T21:44:54.034Z,24.10
2019-05-21T21:47:24.041Z,24.10
2019-05-21T21:49:54.788Z,24.10
2019-05-21T21:52:25.050Z,24.10
2019-05-21T21:54:54.912Z,24.10
2019-05-21T21:57:24.715Z,24.10
2019-05-21T21:59:54.788Z,24.10
2019-05-21T22:02:31.833Z,24.10
2019-05-21T22:05:02.772Z,24.10
2019-05-21T22:07:32.958Z,24.10
2019-05-21T22:10:02.997Z,24.10
2019-05-21T22:12:33.123Z,24.10
2019-05-21T22:15:03.055Z,24.10
2019-05-21T22:17:33.270Z,24.10
2019-05-21T22:20:03.272Z,24.10
2019-05-21T22:22:33.396Z,24.10
2019-05-21T22:25:04.668Z,24.10
2019-05-21T22:27:34.696Z,24.10
2019-05-21T22:30:06.707Z,24.10
2019-05-21T22:32:36.651Z,24.10
2019-05-21T22:35:06.731Z,24.10
2019-05-21T22:37:36.956Z,24.10
2019-05-21T22:40:07.276Z,24.10
2019-05-21T22:42:37.367Z,24.10
2019-05-21T22:45:09.115Z,24.10
2019-05-21T22:47:39.099Z,24.10
2019-05-21T22:50:09.851Z,24.10
2019-05-21T22:52:39.659Z,24.10
2019-05-21T22:55:09.895Z,24.10
2019-05-21T22:57:39.689Z,24.10
2019-05-21T23:00:12.041Z,24.10
2019-05-21T23:02:42.825Z,24.10
2019-05-21T23:05:13.437Z,24.10
2019-05-21T23:07:43.266Z,24.10
2019-05-21T23:10:14.161Z,24.10
2019-05-21T23:12:45.290Z,24.10
2019-05-21T23:15:24.586Z,24.10
2019-05-21T23:17:47.135Z,24.10
2019-05-21T23:20:18.533Z,24.10
2019-05-21T23:22:51.457Z,24.10
2019-05-21T23:25:22.467Z,24.10
2019-05-21T23:27:52.268Z,24.10
2019-05-21T23:30:23.197Z,24.10
2019-05-21T23:32:53.678Z,24.10
2019-05-21T23:35:24.194Z,24.10
2019-05-21T23:37:56.527Z,24.10
2019-05-21T23:40:28.883Z,24.10
2019-05-21T23:42:58.756Z,24.10
2019-05-21T23:45:28.685Z,24.10
2019-05-21T23:47:59.013Z,24.10
2019-05-21T23:50:29.183Z,24.10
2019-05-21T23:52:59.070Z,24.10
2019-05-21T23:55:29.178Z,24.10
2019-05-21T23:57:59.133Z,24.10
